sensor_id;sensor_type;location;lat;lon;timestamp;pressure;altitude;pressure_sealevel;temperature;humidity
41843;BME280;74160;52.530;13.188;2024-02-26T00:00:55;100033.91;;;19.52;53.86
41843;BME280;74160;52.530;13.188;2024-02-26T00:03:21;100029.63;;;19.51;53.88
41843;BME280;74160;52.530;13.188;2024-02-26T00:05:46;100022.44;;;19.51;53.86
41843;BME280;74160;52.530;13.188;2024-02-26T00:08:11;100026.97;;;19.51;53.76
41843;BME280;74160;52.530;13.188;2024-02-26T00:10:36;100024.28;;;19.51;53.86
41843;BME280;74160;52.530;13.188;2024-02-26T00:13:02;100026.75;;;19.52;54.83
41843;BME280;74160;52.530;13.188;2024-02-26T00:15:27;100016.69;;;19.48;54.23
41843;BME280;74160;52.530;13.188;2024-02-26T00:17:53;100014.00;;;19.48;53.97
41843;BME280;74160;52.530;13.188;2024-02-26T00:20:18;100010.34;;;19.49;54.49
41843;BME280;74160;52.530;13.188;2024-02-26T00:22:43;100017.53;;;19.48;54.13
41843;BME280;74160;52.530;13.188;2024-02-26T00:25:08;100011.34;;;19.48;54.19
41843;BME280;74160;52.530;13.188;2024-02-26T00:27:34;100017.31;;;19.50;54.05
41843;BME280;74160;52.530;13.188;2024-02-26T00:29:59;100013.81;;;19.49;54.30
41843;BME280;74160;52.530;13.188;2024-02-26T00:32:24;100005.81;;;19.49;54.56
41843;BME280;74160;52.530;13.188;2024-02-26T00:34:49;100005.81;;;19.49;54.53
41843;BME280;74160;52.530;13.188;2024-02-26T00:37:15;99997.00;;;19.49;54.57
41843;BME280;74160;52.530;13.188;2024-02-26T00:39:40;100001.53;;;19.48;55.22
41843;BME280;74160;52.530;13.188;2024-02-26T00:42:06;100007.69;;;19.49;54.49
41843;BME280;74160;52.530;13.188;2024-02-26T00:44:31;100008.69;;;19.48;54.51
41843;BME280;74160;52.530;13.188;2024-02-26T00:46:57;100000.50;;;19.49;54.91
41843;BME280;74160;52.530;13.188;2024-02-26T00:49:22;100005.63;;;19.51;54.85
41843;BME280;74160;52.530;13.188;2024-02-26T00:51:47;99999.28;;;19.52;55.21
41843;BME280;74160;52.530;13.188;2024-02-26T00:54:12;100000.50;;;19.56;54.18
41843;BME280;74160;52.530;13.188;2024-02-26T00:56:38;99993.97;;;19.58;54.08
41843;BME280;74160;52.530;13.188;2024-02-26T00:59:03;99994.56;;;19.54;55.12
41843;BME280;74160;52.530;13.188;2024-02-26T01:01:29;99994.78;;;19.52;54.30
41843;BME280;74160;52.530;13.188;2024-02-26T01:03:54;99991.91;;;19.54;54.55
41843;BME280;74160;52.530;13.188;2024-02-26T01:06:19;99997.03;;;19.55;54.65
41843;BME280;74160;52.530;13.188;2024-02-26T01:08:44;99995.41;;;19.54;54.44
41843;BME280;74160;52.530;13.188;2024-02-26T01:11:10;100001.56;;;19.55;54.65
41843;BME280;74160;52.530;13.188;2024-02-26T01:13:35;99993.75;;;19.53;54.32
41843;BME280;74160;52.530;13.188;2024-02-26T01:16:00;99994.56;;;19.54;54.26
41843;BME280;74160;52.530;13.188;2024-02-26T01:18:26;99998.47;;;19.58;54.07
41843;BME280;74160;52.530;13.188;2024-02-26T01:20:51;99996.03;;;19.56;54.25
41843;BME280;74160;52.530;13.188;2024-02-26T01:23:19;99984.53;;;19.56;54.26
41843;BME280;74160;52.530;13.188;2024-02-26T01:25:44;99999.06;;;19.53;54.60
41843;BME280;74160;52.530;13.188;2024-02-26T01:28:10;99987.00;;;19.57;54.62
41843;BME280;74160;52.530;13.188;2024-02-26T01:30:35;99997.22;;;19.54;54.60
41843;BME280;74160;52.530;13.188;2024-02-26T01:33:00;99994.78;;;19.59;54.34
41843;BME280;74160;52.530;13.188;2024-02-26T01:35:25;99995.00;;;19.57;54.34
41843;BME280;74160;52.530;13.188;2024-02-26T01:37:51;99993.13;;;19.58;54.15
41843;BME280;74160;52.530;13.188;2024-02-26T01:40:16;99989.66;;;19.57;54.41
41843;BME280;74160;52.530;13.188;2024-02-26T01:42:44;99986.00;;;19.58;54.53
41843;BME280;74160;52.530;13.188;2024-02-26T01:45:12;99973.84;;;19.56;55.09
41843;BME280;74160;52.530;13.188;2024-02-26T01:47:40;99981.47;;;19.59;54.28
41843;BME280;74160;52.530;13.188;2024-02-26T01:50:06;99983.94;;;19.60;54.12
41843;BME280;74160;52.530;13.188;2024-02-26T01:52:31;99981.28;;;19.60;54.52
41843;BME280;74160;52.530;13.188;2024-02-26T01:54:57;99983.09;;;19.60;54.56
41843;BME280;74160;52.530;13.188;2024-02-26T01:57:23;99986.00;;;19.58;54.51
41843;BME280;74160;52.530;13.188;2024-02-26T01:59:48;99978.00;;;19.58;54.37
41843;BME280;74160;52.530;13.188;2024-02-26T02:02:13;99970.81;;;19.59;55.32
41843;BME280;74160;52.530;13.188;2024-02-26T02:04:40;99975.94;;;19.60;54.57
41843;BME280;74160;52.530;13.188;2024-02-26T02:07:05;99985.16;;;19.58;54.59
41843;BME280;74160;52.530;13.188;2024-02-26T02:09:31;99985.75;;;19.60;54.74
41843;BME280;74160;52.530;13.188;2024-02-26T02:11:56;99983.94;;;19.60;54.31
41843;BME280;74160;52.530;13.188;2024-02-26T02:14:23;99975.72;;;19.62;54.62
41843;BME280;74160;52.530;13.188;2024-02-26T02:16:49;99980.44;;;19.60;54.21
41843;BME280;74160;52.530;13.188;2024-02-26T02:19:14;99976.97;;;19.59;54.62
41843;BME280;74160;52.530;13.188;2024-02-26T02:21:39;99982.09;;;19.61;54.40
41843;BME280;74160;52.530;13.188;2024-02-26T02:24:04;99976.75;;;19.61;54.61
41843;BME280;74160;52.530;13.188;2024-02-26T02:26:30;99981.28;;;19.60;54.75
41843;BME280;74160;52.530;13.188;2024-02-26T02:28:55;99980.44;;;19.60;54.44
41843;BME280;74160;52.530;13.188;2024-02-26T02:31:21;99978.38;;;19.62;54.68
41843;BME280;74160;52.530;13.188;2024-02-26T02:33:46;99989.28;;;19.60;54.40
41843;BME280;74160;52.530;13.188;2024-02-26T02:36:11;99979.25;;;19.63;54.47
41843;BME280;74160;52.530;13.188;2024-02-26T02:38:37;99981.06;;;19.62;54.10
41843;BME280;74160;52.530;13.188;2024-02-26T02:41:02;99977.78;;;19.60;55.27
41843;BME280;74160;52.530;13.188;2024-02-26T02:43:28;99981.91;;;19.63;54.35
41843;BME280;74160;52.530;13.188;2024-02-26T02:45:53;99980.06;;;19.63;54.78
41843;BME280;74160;52.530;13.188;2024-02-26T02:48:18;99986.00;;;19.65;54.62
41843;BME280;74160;52.530;13.188;2024-02-26T02:50:43;99979.84;;;19.65;54.04
41843;BME280;74160;52.530;13.188;2024-02-26T02:53:08;99979.25;;;19.63;54.20
41843;BME280;74160;52.530;13.188;2024-02-26T02:55:34;99985.56;;;19.61;54.18
41843;BME280;74160;52.530;13.188;2024-02-26T02:57:59;99982.72;;;19.63;54.25
41843;BME280;74160;52.530;13.188;2024-02-26T03:00:24;99978.19;;;19.64;54.66
41843;BME280;74160;52.530;13.188;2024-02-26T03:02:50;99981.06;;;19.62;54.35
41843;BME280;74160;52.530;13.188;2024-02-26T03:05:15;99978.19;;;19.57;54.36
41843;BME280;74160;52.530;13.188;2024-02-26T03:07:40;100001.56;;;19.61;54.35
41843;BME280;74160;52.530;13.188;2024-02-26T03:10:05;99997.28;;;19.60;54.55
41843;BME280;74160;52.530;13.188;2024-02-26T03:12:31;100002.38;;;19.62;54.19
41843;BME280;74160;52.530;13.188;2024-02-26T03:14:57;99992.75;;;19.61;54.32
41843;BME280;74160;52.530;13.188;2024-02-26T03:17:22;99998.47;;;19.58;54.28
41843;BME280;74160;52.530;13.188;2024-02-26T03:19:49;99997.66;;;19.57;54.79
41843;BME280;74160;52.530;13.188;2024-02-26T03:22:18;99983.72;;;19.55;54.25
41843;BME280;74160;52.530;13.188;2024-02-26T03:24:43;100001.31;;;19.50;54.47
41843;BME280;74160;52.530;13.188;2024-02-26T03:27:08;99987.00;;;19.57;53.93
41843;BME280;74160;52.530;13.188;2024-02-26T03:29:37;99988.03;;;19.56;54.29
41843;BME280;74160;52.530;13.188;2024-02-26T03:32:03;99987.59;;;19.53;54.41
41843;BME280;74160;52.530;13.188;2024-02-26T03:34:28;99982.06;;;19.54;54.34
41843;BME280;74160;52.530;13.188;2024-02-26T03:36:55;99974.88;;;19.48;54.47
41843;BME280;74160;52.530;13.188;2024-02-26T03:39:20;99982.25;;;19.46;54.05
41843;BME280;74160;52.530;13.188;2024-02-26T03:41:45;99986.75;;;19.46;54.56
41843;BME280;74160;52.530;13.188;2024-02-26T03:44:11;99993.09;;;19.45;54.64
41843;BME280;74160;52.530;13.188;2024-02-26T03:46:37;99999.69;;;19.49;54.65
41843;BME280;74160;52.530;13.188;2024-02-26T03:49:02;100004.38;;;19.47;55.33
41843;BME280;74160;52.530;13.188;2024-02-26T03:51:28;100000.91;;;19.46;54.10
41843;BME280;74160;52.530;13.188;2024-02-26T03:53:56;100008.06;;;19.46;54.43
41843;BME280;74160;52.530;13.188;2024-02-26T03:56:22;100005.19;;;19.47;53.99
41843;BME280;74160;52.530;13.188;2024-02-26T03:58:48;100012.19;;;19.48;53.92
41843;BME280;74160;52.530;13.188;2024-02-26T04:01:13;100017.72;;;19.47;53.87
41843;BME280;74160;52.530;13.188;2024-02-26T04:03:38;100021.00;;;19.49;53.94
41843;BME280;74160;52.530;13.188;2024-02-26T04:06:03;100010.53;;;19.47;53.93
41843;BME280;74160;52.530;13.188;2024-02-26T04:08:29;100009.53;;;19.48;53.91
41843;BME280;74160;52.530;13.188;2024-02-26T04:10:54;100011.75;;;19.45;53.99
41843;BME280;74160;52.530;13.188;2024-02-26T04:13:19;100015.44;;;19.44;53.91
41843;BME280;74160;52.530;13.188;2024-02-26T04:15:45;100017.09;;;19.45;54.02
41843;BME280;74160;52.530;13.188;2024-02-26T04:18:11;100018.09;;;19.44;53.97
41843;BME280;74160;52.530;13.188;2024-02-26T04:20:37;100020.75;;;19.44;54.04
41843;BME280;74160;52.530;13.188;2024-02-26T04:23:03;100027.56;;;19.46;53.88
41843;BME280;74160;52.530;13.188;2024-02-26T04:25:28;100024.28;;;19.44;53.88
41843;BME280;74160;52.530;13.188;2024-02-26T04:27:53;100018.50;;;19.40;53.96
41843;BME280;74160;52.530;13.188;2024-02-26T04:30:19;100030.78;;;19.41;53.93
41843;BME280;74160;52.530;13.188;2024-02-26T04:32:44;100035.75;;;19.45;54.01
41843;BME280;74160;52.530;13.188;2024-02-26T04:35:10;100033.06;;;19.45;53.99
41843;BME280;74160;52.530;13.188;2024-02-26T04:37:35;100037.38;;;19.46;53.95
41843;BME280;74160;52.530;13.188;2024-02-26T04:40:00;100031.84;;;19.40;54.11
41843;BME280;74160;52.530;13.188;2024-02-26T04:42:26;100031.63;;;19.42;54.08
41843;BME280;74160;52.530;13.188;2024-02-26T04:44:51;100040.63;;;19.41;54.14
41843;BME280;74160;52.530;13.188;2024-02-26T04:47:17;100041.66;;;19.40;54.06
41843;BME280;74160;52.530;13.188;2024-02-26T04:49:42;100033.69;;;19.40;54.14
41843;BME280;74160;52.530;13.188;2024-02-26T04:52:07;100041.47;;;19.41;54.05
41843;BME280;74160;52.530;13.188;2024-02-26T04:54:33;100036.97;;;19.42;54.01
41843;BME280;74160;52.530;13.188;2024-02-26T04:56:58;100045.97;;;19.41;54.15
41843;BME280;74160;52.530;13.188;2024-02-26T04:59:23;100049.66;;;19.40;54.14
41843;BME280;74160;52.530;13.188;2024-02-26T05:01:49;100045.34;;;19.39;54.07
41843;BME280;74160;52.530;13.188;2024-02-26T05:04:16;100047.00;;;19.40;54.23
41843;BME280;74160;52.530;13.188;2024-02-26T05:06:41;100058.47;;;19.40;54.05
41843;BME280;74160;52.530;13.188;2024-02-26T05:09:06;100054.78;;;19.41;54.12
41843;BME280;74160;52.530;13.188;2024-02-26T05:11:31;100066.47;;;19.40;54.20
41843;BME280;74160;52.530;13.188;2024-02-26T05:13:57;100063.81;;;19.40;54.19
41843;BME280;74160;52.530;13.188;2024-02-26T05:16:22;100065.44;;;19.41;54.19
41843;BME280;74160;52.530;13.188;2024-02-26T05:18:49;100068.31;;;19.40;53.99
41843;BME280;74160;52.530;13.188;2024-02-26T05:21:15;100067.09;;;19.42;53.99
41843;BME280;74160;52.530;13.188;2024-02-26T05:23:40;100066.28;;;19.42;54.18
41843;BME280;74160;52.530;13.188;2024-02-26T05:26:05;100073.06;;;19.45;54.12
41843;BME280;74160;52.530;13.188;2024-02-26T05:28:30;100073.25;;;19.43;54.18
41843;BME280;74160;52.530;13.188;2024-02-26T05:30:56;100065.88;;;19.45;54.21
41843;BME280;74160;52.530;13.188;2024-02-26T05:33:21;100067.72;;;19.45;54.18
41843;BME280;74160;52.530;13.188;2024-02-26T05:35:48;100073.06;;;19.45;54.23
41843;BME280;74160;52.530;13.188;2024-02-26T05:38:13;100071.19;;;19.45;54.33
41843;BME280;74160;52.530;13.188;2024-02-26T05:40:38;100078.63;;;19.15;55.88
41843;BME280;74160;52.530;13.188;2024-02-26T05:43:03;100077.53;;;19.03;55.23
41843;BME280;74160;52.530;13.188;2024-02-26T05:45:29;100074.03;;;18.52;53.12
41843;BME280;74160;52.530;13.188;2024-02-26T05:47:54;100083.38;;;18.05;50.53
41843;BME280;74160;52.530;13.188;2024-02-26T05:50:19;100080.84;;;17.82;48.59
41843;BME280;74160;52.530;13.188;2024-02-26T05:52:44;100087.28;;;17.58;46.94
41843;BME280;74160;52.530;13.188;2024-02-26T05:55:10;100087.19;;;17.36;45.63
41843;BME280;74160;52.530;13.188;2024-02-26T05:57:35;100099.59;;;11.93;46.00
41843;BME280;74160;52.530;13.188;2024-02-26T06:00:00;100110.59;;;9.85;50.93
41843;BME280;74160;52.530;13.188;2024-02-26T06:02:32;100115.56;;;9.69;51.88
41843;BME280;74160;52.530;13.188;2024-02-26T06:04:57;100129.13;;;11.02;50.12
41843;BME280;74160;52.530;13.188;2024-02-26T06:07:22;100107.09;;;14.33;44.98
41843;BME280;74160;52.530;13.188;2024-02-26T06:09:48;100103.03;;;15.99;43.39
41843;BME280;74160;52.530;13.188;2024-02-26T06:12:13;100103.81;;;16.86;44.35
41843;BME280;74160;52.530;13.188;2024-02-26T06:14:38;100108.06;;;17.39;45.28
41843;BME280;74160;52.530;13.188;2024-02-26T06:17:04;100103.03;;;17.74;45.76
41843;BME280;74160;52.530;13.188;2024-02-26T06:19:29;100107.06;;;18.00;45.45
41843;BME280;74160;52.530;13.188;2024-02-26T06:21:54;100107.75;;;18.09;45.77
41843;BME280;74160;52.530;13.188;2024-02-26T06:24:19;100115.88;;;18.22;45.70
41843;BME280;74160;52.530;13.188;2024-02-26T06:26:47;100111.72;;;18.34;46.03
41843;BME280;74160;52.530;13.188;2024-02-26T06:29:12;100111.19;;;18.46;46.09
41843;BME280;74160;52.530;13.188;2024-02-26T06:31:37;100114.59;;;18.54;46.71
41843;BME280;74160;52.530;13.188;2024-02-26T06:34:03;100118.75;;;18.64;46.66
41843;BME280;74160;52.530;13.188;2024-02-26T06:36:28;100122.28;;;18.71;47.17
41843;BME280;74160;52.530;13.188;2024-02-26T06:38:53;100127.50;;;18.79;47.53
41843;BME280;74160;52.530;13.188;2024-02-26T06:41:19;100133.72;;;18.86;47.37
41843;BME280;74160;52.530;13.188;2024-02-26T06:43:44;100129.47;;;18.92;47.94
41843;BME280;74160;52.530;13.188;2024-02-26T06:46:09;100129.72;;;18.97;47.91
41843;BME280;74160;52.530;13.188;2024-02-26T06:48:35;100130.78;;;19.03;48.15
41843;BME280;74160;52.530;13.188;2024-02-26T06:51:01;100135.53;;;19.07;48.43
41843;BME280;74160;52.530;13.188;2024-02-26T06:53:27;100136.59;;;19.13;48.91
41843;BME280;74160;52.530;13.188;2024-02-26T06:55:52;100137.66;;;19.18;48.97
41843;BME280;74160;52.530;13.188;2024-02-26T06:58:17;100142.59;;;19.21;49.05
41843;BME280;74160;52.530;13.188;2024-02-26T07:00:42;100138.34;;;19.27;49.36
41843;BME280;74160;52.530;13.188;2024-02-26T07:03:08;100147.59;;;19.31;49.57
41843;BME280;74160;52.530;13.188;2024-02-26T07:05:33;100149.22;;;19.32;49.53
41843;BME280;74160;52.530;13.188;2024-02-26T07:07:58;100151.41;;;19.22;50.55
41843;BME280;74160;52.530;13.188;2024-02-26T07:10:23;100156.16;;;19.27;50.26
41843;BME280;74160;52.530;13.188;2024-02-26T07:12:49;100155.00;;;19.36;50.20
41843;BME280;74160;52.530;13.188;2024-02-26T07:15:14;100165.88;;;19.41;50.39
41843;BME280;74160;52.530;13.188;2024-02-26T07:17:39;100157.13;;;19.47;50.34
41843;BME280;74160;52.530;13.188;2024-02-26T07:20:12;100158.56;;;19.50;50.83
41843;BME280;74160;52.530;13.188;2024-02-26T07:22:37;100158.56;;;19.50;50.90
41843;BME280;74160;52.530;13.188;2024-02-26T07:25:03;100159.81;;;19.54;50.92
41843;BME280;74160;52.530;13.188;2024-02-26T07:27:28;100155.97;;;19.56;50.97
41843;BME280;74160;52.530;13.188;2024-02-26T07:29:53;100167.03;;;19.60;51.25
41843;BME280;74160;52.530;13.188;2024-02-26T07:32:19;100162.31;;;19.62;51.33
41843;BME280;74160;52.530;13.188;2024-02-26T07:34:44;100161.13;;;19.65;51.54
41843;BME280;74160;52.530;13.188;2024-02-26T07:37:10;100164.88;;;19.70;51.58
41843;BME280;74160;52.530;13.188;2024-02-26T07:39:35;100160.53;;;19.69;51.85
41843;BME280;74160;52.530;13.188;2024-02-26T07:42:00;100158.31;;;19.73;51.90
41843;BME280;74160;52.530;13.188;2024-02-26T07:44:25;100159.97;;;19.74;52.06
41843;BME280;74160;52.530;13.188;2024-02-26T07:46:50;100155.44;;;19.74;52.08
41843;BME280;74160;52.530;13.188;2024-02-26T07:49:16;100155.69;;;19.79;52.04
41843;BME280;74160;52.530;13.188;2024-02-26T07:51:41;100154.66;;;19.80;52.32
41843;BME280;74160;52.530;13.188;2024-02-26T07:54:07;100149.94;;;19.83;52.38
41843;BME280;74160;52.530;13.188;2024-02-26T07:56:32;100156.09;;;19.83;52.58
41843;BME280;74160;52.530;13.188;2024-02-26T07:58:57;100154.91;;;19.86;52.52
41843;BME280;74160;52.530;13.188;2024-02-26T08:01:22;100147.91;;;19.85;52.92
41843;BME280;74160;52.530;13.188;2024-02-26T08:03:48;100157.56;;;19.86;52.84
41843;BME280;74160;52.530;13.188;2024-02-26T08:06:13;100162.50;;;19.89;52.94
41843;BME280;74160;52.530;13.188;2024-02-26T08:08:38;100167.00;;;19.88;53.11
41843;BME280;74160;52.530;13.188;2024-02-26T08:11:03;100165.38;;;19.52;51.62
41843;BME280;74160;52.530;13.188;2024-02-26T08:13:29;100162.00;;;19.72;53.04
41843;BME280;74160;52.530;13.188;2024-02-26T08:15:54;100165.75;;;19.84;52.80
41843;BME280;74160;52.530;13.188;2024-02-26T08:18:20;100168.88;;;19.88;52.90
41843;BME280;74160;52.530;13.188;2024-02-26T08:20:45;100178.31;;;19.90;53.03
41843;BME280;74160;52.530;13.188;2024-02-26T08:23:11;100178.13;;;19.92;53.10
41843;BME280;74160;52.530;13.188;2024-02-26T08:25:36;100177.72;;;19.95;53.18
41843;BME280;74160;52.530;13.188;2024-02-26T08:28:01;100179.56;;;19.94;53.40
41843;BME280;74160;52.530;13.188;2024-02-26T08:30:27;100182.03;;;19.96;53.18
41843;BME280;74160;52.530;13.188;2024-02-26T08:32:52;100176.47;;;19.97;53.50
41843;BME280;74160;52.530;13.188;2024-02-26T08:35:18;100178.34;;;19.97;53.54
41843;BME280;74160;52.530;13.188;2024-02-26T08:37:44;100174.16;;;17.05;42.24
41843;BME280;74160;52.530;13.188;2024-02-26T08:40:10;100183.69;;;15.33;47.30
41843;BME280;74160;52.530;13.188;2024-02-26T08:42:35;100169.22;;;17.69;45.06
41843;BME280;74160;52.530;13.188;2024-02-26T08:45:01;100165.84;;;18.85;48.74
41843;BME280;74160;52.530;13.188;2024-02-26T08:47:27;100165.00;;;19.27;49.65
41843;BME280;74160;52.530;13.188;2024-02-26T08:49:53;100164.03;;;19.41;48.68
41843;BME280;74160;52.530;13.188;2024-02-26T08:52:18;100161.03;;;19.51;49.04
41843;BME280;74160;52.530;13.188;2024-02-26T08:54:43;100165.59;;;19.57;49.29
41843;BME280;74160;52.530;13.188;2024-02-26T08:57:09;100163.97;;;19.63;49.51
41843;BME280;74160;52.530;13.188;2024-02-26T08:59:34;100159.28;;;19.65;49.74
41843;BME280;74160;52.530;13.188;2024-02-26T09:02:00;100162.00;;;19.72;50.18
41843;BME280;74160;52.530;13.188;2024-02-26T09:04:25;100164.47;;;19.73;50.14
41843;BME280;74160;52.530;13.188;2024-02-26T09:06:51;100161.22;;;19.78;50.29
41843;BME280;74160;52.530;13.188;2024-02-26T09:09:16;100168.00;;;19.80;50.57
41843;BME280;74160;52.530;13.188;2024-02-26T09:11:42;100157.97;;;19.83;50.65
41843;BME280;74160;52.530;13.188;2024-02-26T09:14:07;100162.06;;;19.85;50.64
41843;BME280;74160;52.530;13.188;2024-02-26T09:16:32;100157.97;;;19.89;51.05
41843;BME280;74160;52.530;13.188;2024-02-26T09:18:57;100163.75;;;19.93;50.80
41843;BME280;74160;52.530;13.188;2024-02-26T09:21:23;100167.84;;;19.95;51.12
41843;BME280;74160;52.530;13.188;2024-02-26T09:23:50;100167.84;;;19.95;51.22
41843;BME280;74160;52.530;13.188;2024-02-26T09:26:15;100177.72;;;19.95;51.45
41843;BME280;74160;52.530;13.188;2024-02-26T09:28:41;100174.38;;;19.79;51.74
41843;BME280;74160;52.530;13.188;2024-02-26T09:31:06;100181.41;;;19.94;51.70
41843;BME280;74160;52.530;13.188;2024-02-26T09:33:32;100178.34;;;19.97;51.71
41843;BME280;74160;52.530;13.188;2024-02-26T09:35:57;100188.63;;;20.00;51.88
41843;BME280;74160;52.530;13.188;2024-02-26T09:38:22;100188.63;;;20.00;51.98
41843;BME280;74160;52.530;13.188;2024-02-26T09:40:48;100180.22;;;20.03;52.32
41843;BME280;74160;52.530;13.188;2024-02-26T09:43:14;100180.03;;;20.05;52.04
41843;BME280;74160;52.530;13.188;2024-02-26T09:45:40;100180.84;;;20.05;52.16
41843;BME280;74160;52.530;13.188;2024-02-26T09:48:06;100189.66;;;20.06;52.44
41843;BME280;74160;52.530;13.188;2024-02-26T09:50:33;100182.09;;;20.09;52.46
41843;BME280;74160;52.530;13.188;2024-02-26T09:52:59;100183.53;;;20.12;52.48
41843;BME280;74160;52.530;13.188;2024-02-26T09:55:25;100183.13;;;20.15;52.65
41843;BME280;74160;52.530;13.188;2024-02-26T09:57:51;100191.78;;;20.17;52.70
41843;BME280;74160;52.530;13.188;2024-02-26T10:00:20;100192.41;;;20.19;52.74
41843;BME280;74160;52.530;13.188;2024-02-26T10:02:46;100191.34;;;20.20;52.92
41843;BME280;74160;52.530;13.188;2024-02-26T10:05:13;100190.13;;;20.22;52.88
41843;BME280;74160;52.530;13.188;2024-02-26T10:07:39;100194.66;;;20.22;53.25
41843;BME280;74160;52.530;13.188;2024-02-26T10:10:05;100198.75;;;20.25;53.19
41843;BME280;74160;52.530;13.188;2024-02-26T10:12:30;100193.84;;;20.28;53.26
41843;BME280;74160;52.530;13.188;2024-02-26T10:14:57;100200.22;;;20.27;53.37
41843;BME280;74160;52.530;13.188;2024-02-26T10:17:22;100198.81;;;20.31;53.36
41843;BME280;74160;52.530;13.188;2024-02-26T10:19:48;100196.53;;;20.35;53.14
41843;BME280;74160;52.530;13.188;2024-02-26T10:22:13;100195.31;;;20.37;53.22
41843;BME280;74160;52.530;13.188;2024-02-26T10:24:38;100193.06;;;20.41;53.41
41843;BME280;74160;52.530;13.188;2024-02-26T10:27:03;100199.81;;;20.37;53.84
41843;BME280;74160;52.530;13.188;2024-02-26T10:29:29;100197.19;;;20.43;53.60
41843;BME280;74160;52.530;13.188;2024-02-26T10:31:55;100201.31;;;20.46;53.51
41843;BME280;74160;52.530;13.188;2024-02-26T10:34:20;100197.63;;;20.54;53.45
41843;BME280;74160;52.530;13.188;2024-02-26T10:36:46;100198.22;;;20.56;53.36
41843;BME280;74160;52.530;13.188;2024-02-26T10:39:11;100201.38;;;20.59;53.27
41843;BME280;74160;52.530;13.188;2024-02-26T10:41:37;100198.50;;;20.61;53.48
41843;BME280;74160;52.530;13.188;2024-02-26T10:44:03;100198.94;;;20.65;53.42
41843;BME280;74160;52.530;13.188;2024-02-26T10:46:28;100194.41;;;20.72;53.47
41843;BME280;74160;52.530;13.188;2024-02-26T10:48:54;100191.53;;;20.80;53.33
41843;BME280;74160;52.530;13.188;2024-02-26T10:51:29;100205.72;;;20.87;53.10
41843;BME280;74160;52.530;13.188;2024-02-26T10:53:54;100194.03;;;20.95;53.18
41843;BME280;74160;52.530;13.188;2024-02-26T10:56:21;100192.41;;;20.94;52.98
41843;BME280;74160;52.530;13.188;2024-02-26T10:58:50;100188.06;;;20.99;52.93
41843;BME280;74160;52.530;13.188;2024-02-26T11:01:15;100188.06;;;20.99;53.20
41843;BME280;74160;52.530;13.188;2024-02-26T11:03:41;100188.06;;;20.99;53.03
41843;BME280;74160;52.530;13.188;2024-02-26T11:06:06;100180.47;;;21.03;53.30
41843;BME280;74160;52.530;13.188;2024-02-26T11:08:33;100186.25;;;21.00;53.26
41843;BME280;74160;52.530;13.188;2024-02-26T11:10:59;100183.75;;;21.05;53.26
41843;BME280;74160;52.530;13.188;2024-02-26T11:13:26;100183.34;;;21.01;53.34
41843;BME280;74160;52.530;13.188;2024-02-26T11:15:54;100188.59;;;20.48;51.41
41843;BME280;74160;52.530;13.188;2024-02-26T11:18:22;100189.97;;;19.89;52.22
41843;BME280;74160;52.530;13.188;2024-02-26T11:20:48;100199.47;;;19.92;53.31
41843;BME280;74160;52.530;13.188;2024-02-26T11:23:14;100201.97;;;20.00;53.31
41843;BME280;74160;52.530;13.188;2024-02-26T11:25:40;100192.06;;;20.42;52.64
41843;BME280;74160;52.530;13.188;2024-02-26T11:28:06;100198.50;;;20.68;52.17
41843;BME280;74160;52.530;13.188;2024-02-26T11:30:34;100200.19;;;20.82;51.76
41843;BME280;74160;52.530;13.188;2024-02-26T11:33:03;100188.06;;;20.86;51.87
41843;BME280;74160;52.530;13.188;2024-02-26T11:35:29;100187.63;;;20.89;52.07
41843;BME280;74160;52.530;13.188;2024-02-26T11:37:54;100187.03;;;20.87;52.10
41843;BME280;74160;52.530;13.188;2024-02-26T11:40:21;100190.31;;;20.89;52.16
41843;BME280;74160;52.530;13.188;2024-02-26T11:42:47;100191.97;;;20.90;52.38
41843;BME280;74160;52.530;13.188;2024-02-26T11:47:56;100191.56;;;20.93;52.33
41843;BME280;74160;52.530;13.188;2024-02-26T11:50:34;100188.88;;;20.93;52.44
41843;BME280;74160;52.530;13.188;2024-02-26T11:53:21;100181.91;;;20.92;52.29
41843;BME280;74160;52.530;13.188;2024-02-26T11:55:45;100187.06;;;20.94;52.51
41843;BME280;74160;52.530;13.188;2024-02-26T11:58:10;100194.44;;;20.92;52.71
41843;BME280;74160;52.530;13.188;2024-02-26T12:00:35;100190.94;;;20.91;52.85
41843;BME280;74160;52.530;13.188;2024-02-26T12:03:01;100189.72;;;20.94;52.63
41843;BME280;74160;52.530;13.188;2024-02-26T12:05:34;100188.28;;;20.98;52.46
41843;BME280;74160;52.530;13.188;2024-02-26T12:08:00;100185.38;;;20.93;52.81
41843;BME280;74160;52.530;13.188;2024-02-26T12:10:33;100190.53;;;20.94;52.76
41843;BME280;74160;52.530;13.188;2024-02-26T12:13:12;100188.69;;;20.95;53.02
41843;BME280;74160;52.530;13.188;2024-02-26T12:15:42;100188.28;;;20.98;52.77
41843;BME280;74160;52.530;13.188;2024-02-26T12:18:09;100178.34;;;19.34;41.18
41843;BME280;74160;52.530;13.188;2024-02-26T12:20:37;100186.59;;;18.16;41.79
41843;BME280;74160;52.530;13.188;2024-02-26T12:23:03;100191.94;;;18.02;41.69
41843;BME280;74160;52.530;13.188;2024-02-26T12:25:29;100190.13;;;18.02;40.55
41843;BME280;74160;52.530;13.188;2024-02-26T12:27:55;100195.53;;;18.09;43.10
41843;BME280;74160;52.530;13.188;2024-02-26T12:30:21;100194.75;;;19.09;49.10
41843;BME280;74160;52.530;13.188;2024-02-26T12:32:47;100202.66;;;19.24;51.61
41843;BME280;74160;52.530;13.188;2024-02-26T12:35:13;100199.19;;;19.24;51.74
41843;BME280;74160;52.530;13.188;2024-02-26T12:37:38;100197.97;;;19.26;51.44